Portada
METAR-TAF:

METAR-TAF

Aeroports :

Rand Airport

Germiston, Sud-àfrica

latitud: 26-14-33S, longitud: 028-09-04E, altitud: 1671 m

Observació

L'informe es va fer fa 16 hores i 2 minuts, a les 16:00 UTC
Vent 8 kt del Nord
Temperatura 18°C
Humitat 42%
Pressió 1027 hPa
Visibilitat 10 km o més
sense núvols per sota de 1500 mi sense presència de cumulonimbus.

METAR: FAGM 231600Z 36008KT CAVOK 18/05 Q1027

Hora: 10:02 (08:02 UTC)


TAF: manca

Observacions i pronòstics meteorològics de més de 4000 aeroports (METAR i TAF).

Les estacions disponibles són els punts grocs i vermells al mapa.

Posi el ratolí al punt desitjat per veure el nom de l'estació.

Feu clic per veure les observacions i els pronòstics meteorològics.

Per canviar el mapa: feu clic els botons verds amb una creu de color negre per apropar; al botó verd amb un guió per allunyar la imatge; o en les fletxes verdes per a mapes adjacents.


METAR-TAF: